Time;durP1;ratioP1;P1;durP2;ratioP2;P2;SDS_P1;SDS_P2;PMS_P1;PMS_P2;Temp;Humidity;BMP_temperature;BMP_pressure;BME280_temperature;BME280_humidity;BME280_pressure;Samples;Min_cycle;Max_cycle;Signal;HPM_P1;HPM_P2
2023/05/25 00:03:54;;;;;;;5.53;2.55;;;;;;;6.78;100.00;99106.09;15274447;19;20007;-42
2023/05/25 00:09:18;;;;;;;6.25;2.40;;;;;;;6.74;100.00;99102.00;15282396;19;20501;-41
2023/05/25 00:14:45;;;;;;;6.10;2.72;;;;;;;6.70;100.00;99100.50;15279416;19;20531;-41
2023/05/25 00:20:12;;;;;;;6.28;2.70;;;;;;;6.65;100.00;99104.53;15282997;19;20010;-41
2023/05/25 00:25:44;;;;;;;6.90;2.83;;;;;;;6.62;100.00;99108.28;15280054;19;20081;-42
2023/05/25 00:31:11;;;;;;;5.07;2.37;;;;;;;6.58;100.00;99104.13;15279291;19;20489;-42
2023/05/25 00:36:30;;;;;;;7.45;2.60;;;;;;;6.53;100.00;99100.94;15274944;19;20011;-43
2023/05/25 00:41:56;;;;;;;4.20;2.25;;;;;;;6.50;100.00;99106.56;15276394;19;20025;-41
2023/05/25 00:47:25;;;;;;;6.38;2.80;;;;;;;6.43;100.00;99109.69;15283961;19;20481;-42
2023/05/25 00:52:49;;;;;;;6.00;3.03;;;;;;;6.36;100.00;99111.16;15278744;19;20450;-42
2023/05/25 00:58:18;;;;;;;6.57;2.80;;;;;;;6.29;100.00;99118.78;15276551;19;20075;-41
2023/05/25 01:03:52;;;;;;;6.72;3.00;;;;;;;6.22;100.00;99114.03;15279584;19;20018;-42
2023/05/25 01:09:20;;;;;;;6.07;2.80;;;;;;;6.15;100.00;99119.84;15273012;19;20015;-41
2023/05/25 01:14:47;;;;;;;7.75;3.08;;;;;;;6.12;100.00;99128.09;15274268;19;20017;-41
2023/05/25 01:20:15;;;;;;;5.75;3.03;;;;;;;6.14;100.00;99131.53;15279817;19;20028;-41
2023/05/25 01:25:53;;;;;;;5.15;2.60;;;;;;;6.10;100.00;99127.34;15275340;19;20086;-41
2023/05/25 01:31:22;;;;;;;7.20;3.13;;;;;;;6.03;100.00;99130.59;15275842;19;20711;-40
2023/05/25 01:36:48;;;;;;;5.57;2.50;;;;;;;5.95;100.00;99131.13;15274241;19;20018;-41
2023/05/25 01:42:15;;;;;;;5.00;2.60;;;;;;;5.88;100.00;99135.25;15268092;19;20014;-41
2023/05/25 01:47:49;;;;;;;4.65;2.40;;;;;;;5.77;100.00;99131.56;15278404;19;20376;-40
2023/05/25 01:53:20;;;;;;;7.28;3.20;;;;;;;5.67;100.00;99130.53;15276309;19;20498;-41
2023/05/25 01:58:52;;;;;;;7.13;3.63;;;;;;;5.59;100.00;99127.53;15272766;19;20046;-41
2023/05/25 02:04:19;;;;;;;7.20;3.60;;;;;;;5.52;100.00;99128.00;15274757;19;20865;-40
2023/05/25 02:09:43;;;;;;;7.55;3.40;;;;;;;5.47;100.00;99127.47;15277690;19;20042;-40
2023/05/25 02:15:18;;;;;;;8.68;4.07;;;;;;;5.42;100.00;99124.28;15267615;19;20481;-41
2023/05/25 02:20:43;;;;;;;8.43;3.80;;;;;;;5.36;100.00;99136.28;15267754;19;20018;-43
2023/05/25 02:26:08;;;;;;;8.68;3.22;;;;;;;5.29;100.00;99145.72;15265911;19;20028;-43
2023/05/25 02:31:35;;;;;;;5.43;2.90;;;;;;;5.23;100.00;99144.28;15275513;19;20016;-43
2023/05/25 02:37:00;;;;;;;4.72;2.95;;;;;;;5.18;100.00;99137.56;15269758;19;20014;-44
2023/05/25 02:42:25;;;;;;;6.95;2.88;;;;;;;5.12;100.00;99138.88;15270463;19;20101;-42
2023/05/25 02:47:52;;;;;;;6.18;3.20;;;;;;;5.05;100.00;99132.25;15266519;19;20010;-43
2023/05/25 02:53:18;;;;;;;6.05;2.92;;;;;;;4.99;100.00;99130.88;15277374;19;20503;-43
2023/05/25 02:58:44;;;;;;;4.55;2.97;;;;;;;4.94;100.00;99133.00;15283419;19;20019;-45
2023/05/25 03:04:17;;;;;;;5.85;2.95;;;;;;;4.87;100.00;99142.41;15285357;19;20452;-47
2023/05/25 03:09:42;;;;;;;5.53;2.95;;;;;;;4.84;100.00;99161.31;15285459;19;20416;-45
2023/05/25 03:15:08;;;;;;;5.20;3.00;;;;;;;4.80;100.00;99157.16;15282395;19;20471;-44
2023/05/25 03:20:35;;;;;;;7.45;3.00;;;;;;;4.73;100.00;99162.91;15272421;19;20090;-47
2023/05/25 03:26:08;;;;;;;7.80;3.40;;;;;;;4.72;100.00;99160.38;15286566;19;20007;-48
2023/05/25 03:31:34;;;;;;;4.93;2.95;;;;;;;4.69;100.00;99160.56;15285916;19;20010;-46
2023/05/25 03:37:02;;;;;;;5.82;3.40;;;;;;;4.66;100.00;99158.09;15285692;19;20362;-46
2023/05/25 03:42:27;;;;;;;5.25;2.90;;;;;;;4.65;100.00;99156.38;15283712;19;20014;-45
2023/05/25 03:47:51;;;;;;;8.57;3.67;;;;;;;4.63;100.00;99167.19;15286738;19;20074;-46
2023/05/25 03:53:19;;;;;;;5.75;3.47;;;;;;;4.66;100.00;99171.44;15275218;19;20015;-45
2023/05/25 03:58:43;;;;;;;9.65;4.28;;;;;;;4.67;100.00;99182.03;15284979;19;20017;-45
2023/05/25 04:04:08;;;;;;;6.82;3.75;;;;;;;4.69;100.00;99185.47;15282431;19;20474;-45
2023/05/25 04:09:35;;;;;;;9.43;4.50;;;;;;;4.71;100.00;99194.19;15285327;19;20017;-45
2023/05/25 04:15:00;;;;;;;7.78;3.78;;;;;;;4.73;100.00;99210.13;15281312;19;20014;-46
2023/05/25 04:20:40;;;;;;;7.97;3.72;;;;;;;4.77;100.00;99222.28;15277724;19;20018;-47
2023/05/25 04:26:15;;;;;;;5.78;3.42;;;;;;;4.83;100.00;99221.00;15271422;19;20031;-46
2023/05/25 04:31:40;;;;;;;5.25;3.42;;;;;;;4.87;100.00;99223.38;15282158;19;20078;-45
2023/05/25 04:37:26;;;;;;;7.93;3.83;;;;;;;4.95;100.00;99230.84;15279235;19;20352;-43
2023/05/25 04:42:54;;;;;;;7.72;3.58;;;;;;;5.03;100.00;99235.66;15279583;19;20471;-44
2023/05/25 04:48:20;;;;;;;7.75;3.63;;;;;;;5.07;100.00;99229.16;15283631;19;20014;-43
2023/05/25 04:53:45;;;;;;;5.45;3.42;;;;;;;5.14;100.00;99229.59;15272210;19;20052;-43
2023/05/25 04:59:12;;;;;;;5.93;3.40;;;;;;;5.23;100.00;99237.81;15275884;19;20018;-44
2023/05/25 05:04:40;;;;;;;5.90;3.50;;;;;;;5.38;100.00;99240.38;15278764;19;20471;-44
2023/05/25 05:10:06;;;;;;;6.57;3.50;;;;;;;5.54;100.00;99254.38;15279950;19;20023;-44
2023/05/25 05:15:39;;;;;;;6.13;3.33;;;;;;;5.74;100.00;99248.56;15279357;19;20495;-47
2023/05/25 05:21:05;;;;;;;6.95;3.20;;;;;;;5.89;100.00;99259.97;15275560;19;20328;-42
2023/05/25 05:26:30;;;;;;;10.88;3.45;;;;;;;6.07;100.00;99252.47;15273352;19;20019;-44
2023/05/25 05:32:23;;;;;;;6.93;3.10;;;;;;;6.30;100.00;99251.63;15276007;19;20799;-43
2023/05/25 05:37:48;;;;;;;7.57;3.63;;;;;;;6.51;100.00;99269.75;15276714;19;20029;-47
2023/05/25 05:43:12;;;;;;;8.68;3.60;;;;;;;6.71;100.00;99270.06;15279100;19;20018;-47
2023/05/25 05:48:41;;;;;;;6.30;3.00;;;;;;;6.89;100.00;99273.16;15280677;19;20414;-45
2023/05/25 05:54:06;;;;;;;5.53;3.20;;;;;;;7.10;100.00;99276.03;15275929;19;20018;-44
2023/05/25 05:59:31;;;;;;;8.30;3.50;;;;;;;7.28;100.00;99281.81;15267969;19;20006;-46
2023/05/25 06:04:58;;;;;;;7.75;3.83;;;;;;;7.42;100.00;99283.41;15276592;19;20020;-46
2023/05/25 06:10:25;;;;;;;6.40;3.08;;;;;;;7.51;100.00;99281.84;15275174;19;20018;-46
2023/05/25 06:15:49;;;;;;;5.85;3.30;;;;;;;7.58;100.00;99276.84;15278706;19;20014;-46
2023/05/25 06:21:16;;;;;;;6.38;3.33;;;;;;;7.67;100.00;99287.72;15270664;19;20010;-46
2023/05/25 06:26:41;;;;;;;6.75;3.72;;;;;;;7.72;100.00;99287.34;15277517;19;20507;-45
2023/05/25 06:32:09;;;;;;;8.50;3.55;;;;;;;7.84;100.00;99296.22;15277165;19;20026;-44
2023/05/25 06:37:38;;;;;;;7.32;4.10;;;;;;;7.95;100.00;99288.16;15286127;19;20019;-46
2023/05/25 06:43:03;;;;;;;7.88;3.80;;;;;;;8.14;100.00;99287.53;15290200;19;20090;-48
2023/05/25 06:48:37;;;;;;;9.05;3.83;;;;;;;8.37;100.00;99292.88;15289004;19;20011;-46
2023/05/25 06:54:06;;;;;;;10.65;3.70;;;;;;;8.64;100.00;99292.44;15286427;19;20007;-45
2023/05/25 06:59:31;;;;;;;11.43;4.00;;;;;;;8.92;100.00;99292.84;15291104;19;20003;-44
2023/05/25 07:04:56;;;;;;;13.23;4.57;;;;;;;9.23;100.00;99279.47;15278548;19;20078;-45
2023/05/25 07:10:23;;;;;;;9.43;4.50;;;;;;;9.52;100.00;99278.81;15292244;19;20526;-48
2023/05/25 07:15:48;;;;;;;9.32;4.50;;;;;;;9.85;100.00;99301.03;15291755;19;20018;-47
2023/05/25 07:21:13;;;;;;;8.50;4.80;;;;;;;10.16;100.00;99287.56;15286085;19;20025;-46
2023/05/25 07:26:43;;;;;;;12.20;5.13;;;;;;;10.41;100.00;99279.16;15259674;19;20347;-44
2023/05/25 07:32:07;;;;;;;9.48;5.72;;;;;;;10.62;100.00;99261.00;15283252;19;20483;-45
2023/05/25 07:37:32;;;;;;;8.48;4.88;;;;;;;10.87;100.00;99258.75;15276057;19;20050;-46
2023/05/25 07:42:59;;;;;;;10.35;5.22;;;;;;;11.04;100.00;99265.25;15284879;19;20087;-44
2023/05/25 07:48:26;;;;;;;9.73;5.60;;;;;;;11.22;100.00;99268.09;15282209;19;20081;-46
2023/05/25 07:53:51;;;;;;;10.02;5.60;;;;;;;11.38;100.00;99256.69;15282780;19;20074;-45
2023/05/25 07:59:18;;;;;;;13.23;6.10;;;;;;;11.62;100.00;99263.44;15283160;19;20394;-46
2023/05/25 08:04:43;;;;;;;10.65;5.95;;;;;;;11.77;100.00;99268.34;15282203;19;20015;-46
2023/05/25 08:10:10;;;;;;;11.68;5.75;;;;;;;11.85;100.00;99266.63;15279471;19;20491;-46
2023/05/25 08:15:37;;;;;;;9.32;5.10;;;;;;;11.96;100.00;99276.38;15285674;19;20006;-44
2023/05/25 08:21:02;;;;;;;9.75;5.30;;;;;;;12.07;100.00;99264.56;15284727;19;20021;-45
2023/05/25 08:26:35;;;;;;;10.57;5.68;;;;;;;12.14;100.00;99254.00;15286303;19;20082;-47
2023/05/25 08:32:13;;;;;;;10.30;5.35;;;;;;;12.21;100.00;99255.09;15285930;19;20135;-44
2023/05/25 08:37:42;;;;;;;10.63;5.75;;;;;;;12.31;100.00;99253.16;15286715;19;20123;-44
2023/05/25 08:43:07;;;;;;;10.70;5.60;;;;;;;12.46;100.00;99258.06;15278485;19;20552;-45
2023/05/25 08:48:37;;;;;;;8.52;5.07;;;;;;;12.67;100.00;99259.63;15286626;19;20073;-47
2023/05/25 08:54:07;;;;;;;10.32;4.47;;;;;;;12.79;100.00;99267.34;15284113;19;20012;-46
2023/05/25 08:59:50;;;;;;;7.35;4.25;;;;;;;12.97;100.00;99268.34;15283558;19;20816;-46
2023/05/25 09:05:18;;;;;;;9.43;4.60;;;;;;;13.24;100.00;99264.69;15281681;19;20350;-47
2023/05/25 09:10:44;;;;;;;10.05;4.60;;;;;;;13.51;100.00;99265.56;15283546;19;20021;-45
2023/05/25 09:16:09;;;;;;;8.32;4.28;;;;;;;13.67;100.00;99270.25;15277826;19;20030;-45
2023/05/25 09:21:37;;;;;;;6.75;3.92;;;;;;;13.63;100.00;99275.13;15280858;19;20029;-50
2023/05/25 09:27:02;;;;;;;7.65;3.90;;;;;;;13.69;100.00;99260.09;15284865;19;20019;-45
2023/05/25 09:32:27;;;;;;;6.53;3.60;;;;;;;13.84;100.00;99265.75;15283152;19;20058;-48
2023/05/25 09:37:55;;;;;;;8.70;3.67;;;;;;;13.80;100.00;99259.81;15283340;19;20011;-46
2023/05/25 09:43:21;;;;;;;6.70;2.63;;;;;;;13.79;100.00;99262.66;15280600;19;20375;-46
2023/05/25 09:49:01;;;;;;;7.43;3.60;;;;;;;13.98;100.00;99256.16;15278815;19;20018;-47
2023/05/25 09:54:30;;;;;;;7.80;2.90;;;;;;;14.22;100.00;99262.69;15279010;19;20078;-46
2023/05/25 09:59:55;;;;;;;5.93;2.80;;;;;;;14.32;100.00;99272.38;15278751;19;20102;-47
2023/05/25 10:05:23;;;;;;;6.82;2.80;;;;;;;14.83;100.00;99262.50;15279385;19;20010;-49
2023/05/25 10:10:51;;;;;;;6.28;3.05;;;;;;;15.27;100.00;99256.75;15279247;19;20026;-46
2023/05/25 10:16:18;;;;;;;5.95;3.20;;;;;;;15.03;100.00;99271.19;15275136;19;20074;-48
2023/05/25 10:21:48;;;;;;;7.40;2.72;;;;;;;14.91;100.00;99262.50;15278647;19;20025;-45
2023/05/25 10:27:18;;;;;;;5.35;2.72;;;;;;;15.06;100.00;99255.41;15282186;19;20483;-46
2023/05/25 10:32:48;;;;;;;5.07;2.33;;;;;;;15.34;100.00;99252.34;15278965;19;20778;-45
2023/05/25 10:38:13;;;;;;;5.43;2.28;;;;;;;15.62;100.00;99251.09;15281367;19;20007;-45
2023/05/25 10:43:42;;;;;;;4.47;2.25;;;;;;;15.92;100.00;99244.06;15278961;19;20094;-47
2023/05/25 10:49:06;;;;;;;5.60;2.40;;;;;;;16.10;100.00;99245.69;15274558;19;20014;-44
2023/05/25 10:54:32;;;;;;;7.25;2.55;;;;;;;15.93;100.00;99248.50;15276632;19;20017;-47
2023/05/25 11:00:04;;;;;;;5.35;2.50;;;;;;;15.68;100.00;99248.53;15278119;19;20019;-45
2023/05/25 11:05:35;;;;;;;5.65;2.15;;;;;;;16.04;100.00;99230.94;15275773;19;20014;-45
2023/05/25 11:11:00;;;;;;;6.65;2.28;;;;;;;16.29;100.00;99228.09;15279093;19;20426;-48
2023/05/25 11:16:36;;;;;;;6.38;2.38;;;;;;;16.55;100.00;99227.75;15291483;19;20089;-46
2023/05/25 11:22:01;;;;;;;5.28;2.50;;;;;;;16.41;100.00;99231.22;15282639;19;20098;-49
2023/05/25 11:27:28;;;;;;;5.72;2.47;;;;;;;15.83;100.00;99235.06;15292115;19;20800;-48
2023/05/25 11:32:59;;;;;;;6.15;2.80;;;;;;;15.95;100.00;99216.53;15291123;19;20022;-49
2023/05/25 11:38:27;;;;;;;4.55;2.30;;;;;;;16.02;100.00;99222.97;15292260;19;20015;-48
2023/05/25 11:43:53;;;;;;;4.68;2.28;;;;;;;16.30;100.00;99224.34;15290376;19;20633;-50
2023/05/25 11:49:23;;;;;;;5.50;2.25;;;;;;;16.75;100.00;99219.97;15295512;19;20021;-45
2023/05/25 11:54:48;;;;;;;5.90;2.20;;;;;;;16.70;100.00;99210.66;15281861;19;20011;-45
2023/05/25 12:00:14;;;;;;;4.55;2.03;;;;;;;16.99;100.00;99207.22;15291937;19;20027;-48
2023/05/25 12:05:51;;;;;;;5.90;2.22;;;;;;;17.30;100.00;99211.69;15292386;19;20078;-47
2023/05/25 12:11:17;;;;;;;7.75;2.20;;;;;;;17.75;100.00;99195.34;15292051;19;20581;-47
2023/05/25 12:16:43;;;;;;;6.63;2.35;;;;;;;17.77;100.00;99200.63;15318262;19;20015;-47
2023/05/25 12:22:11;;;;;;;3.78;2.13;;;;;;;17.76;100.00;99197.06;15286875;19;20127;-47
2023/05/25 12:27:35;;;;;;;5.18;2.20;;;;;;;17.97;100.00;99190.88;15279979;19;20054;-46
2023/05/25 12:33:03;;;;;;;5.68;2.08;;;;;;;17.71;100.00;99194.91;15284515;19;20033;-45
2023/05/25 12:38:30;;;;;;;5.55;1.90;;;;;;;17.86;100.00;99192.16;15287405;19;20026;-46
2023/05/25 12:43:55;;;;;;;9.75;2.25;;;;;;;18.27;100.00;99184.50;15285998;19;20075;-46
2023/05/25 12:49:31;;;;;;;4.00;2.00;;;;;;;18.60;90.53;99175.81;15287809;19;20089;-48
2023/05/25 12:54:59;;;;;;;5.38;2.25;;;;;;;18.94;92.21;99177.00;15282604;19;20427;-47
2023/05/25 13:00:24;;;;;;;6.03;2.00;;;;;;;19.20;92.41;99180.97;15278603;19;20097;-46
2023/05/25 13:05:50;;;;;;;6.22;2.05;;;;;;;19.42;77.39;99172.72;15287270;19;20015;-46
2023/05/25 13:11:17;;;;;;;6.38;2.33;;;;;;;19.80;82.72;99185.97;15287486;19;20024;-50
2023/05/25 13:16:42;;;;;;;7.40;2.30;;;;;;;19.39;90.50;99174.78;15285841;19;20353;-46
2023/05/25 13:22:06;;;;;;;5.22;2.30;;;;;;;19.96;86.90;99171.13;15282224;19;20021;-45
2023/05/25 13:27:35;;;;;;;5.32;2.20;;;;;;;20.39;81.31;99165.38;15283206;19;20502;-45
2023/05/25 13:33:00;;;;;;;5.65;1.98;;;;;;;20.67;81.85;99164.38;15276370;19;20477;-45
2023/05/25 13:38:25;;;;;;;4.25;1.90;;;;;;;20.52;79.79;99156.31;15280808;19;20016;-46
2023/05/25 13:43:53;;;;;;;4.40;1.80;;;;;;;20.07;74.78;99159.59;15280794;19;20020;-45
2023/05/25 13:49:18;;;;;;;5.82;2.10;;;;;;;20.44;66.53;99153.78;15284869;19;20032;-49
2023/05/25 13:54:42;;;;;;;5.90;2.20;;;;;;;20.61;74.14;99146.88;15282608;19;20006;-48
2023/05/25 14:00:11;;;;;;;4.88;1.98;;;;;;;20.47;64.53;99142.44;15282035;19;20074;-46
2023/05/25 14:05:35;;;;;;;4.93;1.90;;;;;;;20.84;65.77;99145.66;15275008;19;20050;-44
2023/05/25 14:11:00;;;;;;;5.57;2.03;;;;;;;20.88;62.33;99144.16;15282297;19;20057;-47
2023/05/25 14:16:27;;;;;;;4.03;1.77;;;;;;;21.03;59.99;99154.94;15282299;19;20017;-47
2023/05/25 14:21:52;;;;;;;3.28;1.80;;;;;;;21.01;59.12;99143.34;15274027;19;20073;-46
2023/05/25 14:27:30;;;;;;;3.92;1.70;;;;;;;20.32;60.95;99146.19;15279701;19;20003;-47
2023/05/25 14:32:58;;;;;;;4.75;1.80;;;;;;;20.32;57.98;99140.72;15282436;19;20027;-47
2023/05/25 14:38:23;;;;;;;4.82;1.95;;;;;;;20.56;60.82;99135.72;15274817;19;20014;-51
2023/05/25 14:43:48;;;;;;;5.00;1.85;;;;;;;20.68;62.07;99126.88;15281633;19;20021;-48
2023/05/25 14:49:16;;;;;;;4.07;1.70;;;;;;;21.17;61.44;99133.84;15290090;19;20077;-46
2023/05/25 14:54:43;;;;;;;5.05;1.90;;;;;;;20.82;59.18;99136.81;15293107;19;20070;-47
2023/05/25 15:00:07;;;;;;;8.57;2.13;;;;;;;21.28;62.85;99136.97;15294754;19;20218;-51
2023/05/25 15:05:35;;;;;;;5.45;2.20;;;;;;;21.42;58.77;99141.38;15289647;19;20010;-50
2023/05/25 15:10:59;;;;;;;4.43;1.85;;;;;;;21.82;60.54;99144.00;15294048;19;20011;-48
2023/05/25 15:16:24;;;;;;;7.38;2.08;;;;;;;22.25;55.17;99136.22;15292520;19;20010;-45
2023/05/25 15:21:51;;;;;;;4.70;1.83;;;;;;;22.21;57.60;99133.09;15287072;19;20495;-47
2023/05/25 15:27:16;;;;;;;3.80;1.80;;;;;;;21.76;55.62;99125.69;15284854;19;20018;-48
2023/05/25 15:32:40;;;;;;;5.05;1.98;;;;;;;21.89;58.74;99115.72;15283537;19;20018;-51
2023/05/25 15:38:08;;;;;;;3.90;1.83;;;;;;;21.87;54.76;99113.22;15279942;19;20019;-50
2023/05/25 15:43:32;;;;;;;6.38;2.00;;;;;;;21.54;60.52;99114.13;15282175;19;20078;-49
2023/05/25 15:48:57;;;;;;;4.28;1.80;;;;;;;21.38;56.05;99113.56;15285555;19;20011;-49
2023/05/25 15:54:24;;;;;;;4.60;1.90;;;;;;;21.54;59.94;99114.13;15282912;19;20014;-49
2023/05/25 15:59:50;;;;;;;4.32;1.85;;;;;;;21.52;55.23;99110.78;15286315;19;20018;-53
2023/05/25 16:05:15;;;;;;;6.25;1.98;;;;;;;21.65;58.74;99115.41;15285167;19;20364;-53
2023/05/25 16:10:43;;;;;;;5.30;2.17;;;;;;;21.74;55.93;99113.25;15280051;19;21409;-48
2023/05/25 16:16:08;;;;;;;7.07;2.20;;;;;;;21.78;56.44;99118.09;15290351;19;20042;-51
2023/05/25 16:21:33;;;;;;;4.35;1.88;;;;;;;21.68;57.21;99109.50;15286279;19;20021;-49
2023/05/25 16:27:01;;;;;;;3.72;1.88;;;;;;;21.36;59.16;99112.06;15286572;19;20086;-50
2023/05/25 16:32:27;;;;;;;6.90;2.20;;;;;;;21.71;58.05;99120.00;15286200;19;20015;-48
2023/05/25 16:37:51;;;;;;;5.10;1.80;;;;;;;21.67;59.58;99107.81;15285798;19;20051;-48
2023/05/25 16:43:20;;;;;;;4.25;2.03;;;;;;;21.92;54.65;99112.56;15270629;19;20418;-48
2023/05/25 16:48:45;;;;;;;5.72;2.13;;;;;;;22.02;57.89;99104.69;15285003;19;20090;-48
2023/05/25 16:54:10;;;;;;;6.57;2.00;;;;;;;22.19;55.64;99109.63;15279757;19;20010;-50
2023/05/25 16:59:38;;;;;;;6.03;2.00;;;;;;;22.16;56.68;99111.78;15276185;19;20480;-47
2023/05/25 17:05:05;;;;;;;5.75;2.15;;;;;;;21.72;55.78;99112.63;15279243;19;20014;-48
2023/05/25 17:10:29;;;;;;;4.80;2.30;;;;;;;21.08;61.16;99104.97;15274798;19;20081;-49
2023/05/25 17:15:57;;;;;;;5.60;2.78;;;;;;;21.03;59.02;99111.09;15266482;19;20356;-49
2023/05/25 17:21:23;;;;;;;5.40;2.25;;;;;;;21.18;60.58;99121.81;15276865;19;20019;-50
2023/05/25 17:26:55;;;;;;;6.03;2.28;;;;;;;21.06;60.24;99113.41;15279630;19;20015;-50
2023/05/25 17:32:22;;;;;;;4.90;2.55;;;;;;;21.03;59.28;99119.31;15280954;19;20011;-48
2023/05/25 17:37:49;;;;;;;;;;;;;;;21.00;57.85;99117.00;15281027;19;20467;-49
2023/05/25 17:43:14;;;;;;;6.28;2.28;;;;;;;21.08;62.03;99114.03;15279334;19;19914;-47
2023/05/25 17:48:42;;;;;;;4.93;2.50;;;;;;;21.02;63.45;99122.25;15268315;19;20511;-51
2023/05/25 17:54:07;;;;;;;5.28;2.05;;;;;;;20.66;62.55;99121.63;15275168;19;20042;-46
2023/05/25 17:59:35;;;;;;;5.68;2.35;;;;;;;20.15;66.79;99125.75;15279895;19;20265;-46
2023/05/25 18:05:05;;;;;;;5.90;2.50;;;;;;;19.61;78.58;99117.31;15272594;19;20047;-51
2023/05/25 18:10:30;;;;;;;5.80;2.42;;;;;;;19.08;89.05;99126.03;15276154;19;20483;-51
2023/05/25 18:15:54;;;;;;;6.55;2.60;;;;;;;18.73;90.69;99129.53;15272619;19;20073;-48
2023/05/25 18:21:22;;;;;;;6.55;2.55;;;;;;;18.48;98.01;99134.53;15271497;19;20017;-48
2023/05/25 18:26:53;;;;;;;6.75;3.05;;;;;;;18.18;100.00;99126.50;15293581;19;20024;-46
2023/05/25 18:32:19;;;;;;;7.20;3.03;;;;;;;17.86;100.00;99132.19;15291823;19;20028;-50
2023/05/25 18:37:47;;;;;;;5.97;3.15;;;;;;;17.47;100.00;99137.97;15292585;19;20089;-46
2023/05/25 18:43:11;;;;;;;6.32;3.00;;;;;;;17.05;100.00;99132.97;15288865;19;20470;-49
2023/05/25 18:48:36;;;;;;;7.05;2.92;;;;;;;16.64;100.00;99133.31;15292642;19;20014;-48
2023/05/25 18:54:04;;;;;;;8.73;3.10;;;;;;;16.26;100.00;99139.56;15281292;19;20010;-47
2023/05/25 18:59:30;;;;;;;7.78;3.28;;;;;;;15.98;100.00;99140.06;15292419;19;20053;-48
2023/05/25 19:04:55;;;;;;;7.10;3.20;;;;;;;15.68;100.00;99147.16;15286012;19;20021;-52
2023/05/25 19:10:23;;;;;;;6.75;3.25;;;;;;;15.54;100.00;99152.31;15288578;19;20014;-48
2023/05/25 19:15:48;;;;;;;7.30;3.40;;;;;;;15.47;100.00;99172.19;15286389;19;20018;-48
2023/05/25 19:21:13;;;;;;;8.43;3.72;;;;;;;15.26;100.00;99168.16;15289825;19;20023;-46
2023/05/25 19:26:47;;;;;;;7.03;3.42;;;;;;;14.99;100.00;99177.56;15271822;19;20621;-45
2023/05/25 19:32:11;;;;;;;7.93;3.20;;;;;;;14.74;100.00;99191.13;15290285;19;20033;-45
2023/05/25 19:37:36;;;;;;;7.72;3.30;;;;;;;14.55;100.00;99194.97;15286738;19;20365;-48
2023/05/25 19:43:04;;;;;;;8.23;2.90;;;;;;;14.30;100.00;99201.22;15282019;19;20031;-48
2023/05/25 19:48:29;;;;;;;8.95;3.22;;;;;;;14.12;100.00;99193.22;15288791;19;20081;-47
2023/05/25 19:53:54;;;;;;;6.70;2.85;;;;;;;13.97;100.00;99200.28;15285534;19;20021;-45
2023/05/25 19:59:26;;;;;;;6.10;2.78;;;;;;;13.83;100.00;99201.75;15282334;19;20007;-46
2023/05/25 20:04:51;;;;;;;6.70;3.28;;;;;;;13.64;100.00;99209.09;15282500;19;20021;-47
2023/05/25 20:10:17;;;;;;;6.82;2.83;;;;;;;13.47;100.00;99215.47;15285492;19;20041;-47
2023/05/25 20:15:44;;;;;;;5.80;2.75;;;;;;;13.32;100.00;99213.31;15281501;19;20386;-46
2023/05/25 20:21:09;;;;;;;6.72;2.78;;;;;;;13.18;100.00;99212.03;15287340;19;20038;-48
2023/05/25 20:26:40;;;;;;;7.05;2.78;;;;;;;13.09;100.00;99215.69;15272275;19;20506;-47
2023/05/25 20:32:09;;;;;;;8.52;2.92;;;;;;;13.05;100.00;99222.44;15279033;19;20013;-45
2023/05/25 20:37:36;;;;;;;5.75;2.75;;;;;;;12.93;100.00;99227.25;15284664;19;20021;-45
2023/05/25 20:43:01;;;;;;;8.60;3.05;;;;;;;12.81;100.00;99226.63;15280429;19;20324;-43
2023/05/25 20:48:29;;;;;;;6.30;3.13;;;;;;;12.73;100.00;99234.69;15284852;19;20043;-49
2023/05/25 20:53:53;;;;;;;6.82;2.90;;;;;;;12.66;100.00;99234.44;15281728;19;20017;-51
2023/05/25 20:59:19;;;;;;;7.63;2.88;;;;;;;12.60;100.00;99232.34;15284286;19;20462;-43
2023/05/25 21:04:47;;;;;;;6.18;2.72;;;;;;;12.56;100.00;99228.28;15273743;19;20018;-49
2023/05/25 21:10:13;;;;;;;7.95;3.05;;;;;;;12.51;100.00;99236.84;15281556;19;20039;-46
2023/05/25 21:15:37;;;;;;;7.53;2.90;;;;;;;12.43;100.00;99240.31;15279609;19;20085;-51
2023/05/25 21:21:05;;;;;;;7.25;2.75;;;;;;;12.36;100.00;99239.19;15279602;19;20375;-47
2023/05/25 21:26:38;;;;;;;6.15;2.50;;;;;;;12.28;100.00;99241.81;15276407;19;20025;-46
2023/05/25 21:32:02;;;;;;;8.15;2.75;;;;;;;12.19;100.00;99248.97;15277070;19;20077;-45
2023/05/25 21:37:30;;;;;;;7.75;3.17;;;;;;;12.11;100.00;99251.59;15275168;19;20456;-44
2023/05/25 21:42:54;;;;;;;6.68;2.55;;;;;;;12.04;100.00;99254.03;15279733;19;20367;-44
2023/05/25 21:48:19;;;;;;;8.75;2.72;;;;;;;12.03;100.00;99257.75;15279195;19;21295;-45
2023/05/25 21:53:47;;;;;;;5.53;2.60;;;;;;;11.95;100.00;99261.16;15278995;19;20015;-46
2023/05/25 21:59:12;;;;;;;6.03;2.85;;;;;;;11.80;100.00;99270.78;15279306;19;20015;-46
2023/05/25 22:04:36;;;;;;;7.05;2.90;;;;;;;11.63;100.00;99269.69;15277363;19;20354;-43
2023/05/25 22:10:04;;;;;;;6.60;2.80;;;;;;;11.51;100.00;99261.78;15277853;19;20047;-45
2023/05/25 22:15:28;;;;;;;6.78;3.00;;;;;;;11.41;100.00;99267.19;15275453;19;20356;-45
2023/05/25 22:20:53;;;;;;;5.70;2.63;;;;;;;11.32;100.00;99269.91;15277525;19;20018;-43
2023/05/25 22:26:21;;;;;;;6.05;2.60;;;;;;;11.24;100.00;99271.50;15274737;19;20029;-43
2023/05/25 22:31:47;;;;;;;7.28;3.00;;;;;;;11.10;100.00;99267.41;15276454;19;20032;-43
2023/05/25 22:37:12;;;;;;;6.40;3.00;;;;;;;11.03;100.00;99276.19;15264092;19;20010;-43
2023/05/25 22:42:40;;;;;;;5.95;2.95;;;;;;;11.01;100.00;99276.31;15277101;19;20022;-43
2023/05/25 22:48:04;;;;;;;7.18;3.05;;;;;;;10.99;100.00;99289.13;15274501;19;20452;-43
2023/05/25 22:53:29;;;;;;;5.88;2.50;;;;;;;10.96;100.00;99289.41;15272631;19;20021;-43
2023/05/25 22:58:56;;;;;;;5.13;2.70;;;;;;;10.92;100.00;99287.97;15276397;19;20046;-44
2023/05/25 23:04:21;;;;;;;6.95;2.72;;;;;;;10.85;100.00;99282.28;15273887;19;20356;-43
2023/05/25 23:09:45;;;;;;;6.72;2.70;;;;;;;10.77;100.00;99280.31;15271798;19;20053;-47
2023/05/25 23:15:14;;;;;;;5.93;2.47;;;;;;;10.72;100.00;99277.19;15287650;19;20374;-43
2023/05/25 23:20:39;;;;;;;6.47;2.85;;;;;;;10.69;100.00;99282.03;15290575;19;20018;-50
2023/05/25 23:26:03;;;;;;;7.32;3.10;;;;;;;10.66;100.00;99282.31;15280581;19;20832;-45
2023/05/25 23:31:30;;;;;;;5.95;2.75;;;;;;;10.62;100.00;99279.03;15289377;19;20015;-44
2023/05/25 23:36:56;;;;;;;6.10;2.80;;;;;;;10.55;100.00;99275.19;15282348;19;20029;-46
2023/05/25 23:42:23;;;;;;;7.13;3.10;;;;;;;10.49;100.00;99287.38;15280142;19;20377;-47
2023/05/25 23:47:50;;;;;;;6.82;2.80;;;;;;;10.43;100.00;99288.78;15286797;19;20070;-47
2023/05/25 23:53:15;;;;;;;8.45;3.20;;;;;;;10.34;100.00;99286.91;15287609;19;20475;-47
2023/05/25 23:58:41;;;;;;;6.55;2.72;;;;;;;10.29;100.00;99291.88;15282992;19;20016;-48
